»·PEaware :: DAL2367 KATL-KSAN

DAL2367 :: KATL-KSAN

FLIGHT INFORMATION

Flight Status: Arrived
Operator:
Delta Air Lines
More flights by this operator :: More flights under this callsign
Pilot: Colin A. (19898)
Aircraft: MCDONNELL-DOUGLAS MD-82
(MD82)
More flights by this aircraft type
Origin: KATL Hartsfield-Jackson Atlanta
United States
Destination: KSAN San Diego Intl-Lindbergh
United States
More flights between these airports :: More routes between these airports
Route: NASSA2 VUZ Q30 SQS ELD CVE FUZ J66 EWM J4 SSO GBN J2 HOGGZ LUCKI1
File this flight plan on PilotEdge
Remarks: PBN / A1B2 DOF / 180803 REG / N882SB EET / KZME0028 KZFW0100 KZAB0217 KZLA0329 OPR / DAL PER / C RMK / TCAS SIMBRIEF
Altitude:
(Current/Filed)
34,000ft
Speed:
(Current/Filed)
450kts
Departed: 03-Aug-18 11:39 AM
Arrived: 03-Aug-18 01:31 PM
Distance/Time
Traveled:
1640nm/1:52
Distance/Time
To Go:
Arrived

Flight Plot

Page will automatically refresh every two minutes.

Flight plan parsing failed; only flown route is shown


Map Options




Map Legend


Flown Route
Filed Route
Departure Airport
Arrival Airport
Navaid (VOR, NDB)
Fix

Horizontal Profiles

Position Reports

Time Latitude Longitude Heading Altitude Ground
Speed
03-Aug-18 11:39 32.213367 -103.845004 267 34070ft 368kts
03-Aug-18 11:40 32.202640 -103.965606 267 34069ft 369kts
03-Aug-18 11:41 32.191466 -104.086180 266 34066ft 369kts
03-Aug-18 11:42 32.180261 -104.207000 266 34064ft 369kts
03-Aug-18 11:43 32.169198 -104.327196 266 34067ft 369kts
03-Aug-18 11:44 32.158484 -104.448001 267 34080ft 370kts
03-Aug-18 11:45 32.147139 -104.568525 266 34107ft 370kts
03-Aug-18 11:46 32.135481 -104.689134 266 34137ft 369kts
03-Aug-18 11:47 32.123763 -104.809242 266 34158ft 368kts
03-Aug-18 11:48 32.112246 -104.929074 266 34169ft 368kts
03-Aug-18 11:49 32.101083 -105.048612 266 34168ft 366kts
03-Aug-18 11:50 32.088979 -105.167893 265 34162ft 365kts
03-Aug-18 11:51 32.076903 -105.287228 265 34152ft 365kts
03-Aug-18 11:52 32.064949 -105.405659 265 34141ft 365kts
03-Aug-18 11:53 32.053179 -105.524438 265 34129ft 362kts
03-Aug-18 11:54 32.040149 -105.642418 259 34119ft 365kts
03-Aug-18 11:55 32.014850 -105.757628 261 34128ft 363kts
03-Aug-18 11:56 32.000370 -105.874863 265 34111ft 360kts
03-Aug-18 11:57 31.984155 -105.991740 262 34095ft 362kts
03-Aug-18 11:58 31.970671 -106.109216 265 34082ft 361kts
03-Aug-18 11:59 31.959982 -106.226829 265 34075ft 361kts
03-Aug-18 12:00 31.959865 -106.345377 277 34073ft 370kts
03-Aug-18 12:01 31.977194 -106.467130 277 34072ft 381kts
03-Aug-18 12:02 31.991890 -106.592084 277 34080ft 389kts
03-Aug-18 12:03 32.006392 -106.719441 276 34095ft 395kts
03-Aug-18 12:04 32.021384 -106.848187 277 34109ft 399kts
03-Aug-18 12:05 32.036011 -106.978380 276 34115ft 401kts
03-Aug-18 12:06 32.050602 -107.109026 276 34117ft 403kts
03-Aug-18 12:07 32.065297 -107.240471 276 34116ft 404kts
03-Aug-18 12:08 32.080118 -107.371878 276 34115ft 405kts
03-Aug-18 12:09 32.094565 -107.503513 275 34115ft 405kts
03-Aug-18 12:10 32.108862 -107.635309 275 34115ft 404kts
03-Aug-18 12:11 32.122932 -107.766614 275 34118ft 403kts
03-Aug-18 12:12 32.136894 -107.897974 275 34122ft 402kts
03-Aug-18 12:13 32.150819 -108.028545 275 34129ft 401kts
03-Aug-18 12:14 32.164835 -108.159546 275 34137ft 402kts
03-Aug-18 12:15 32.178249 -108.290335 275 34157ft 402kts
03-Aug-18 12:16 32.191349 -108.421989 274 34154ft 403kts
03-Aug-18 12:17 32.204507 -108.553246 275 34148ft 404kts
03-Aug-18 12:18 32.217702 -108.684808 274 34138ft 403kts
03-Aug-18 12:19 32.230432 -108.812099 274 34128ft 386kts
03-Aug-18 12:20 32.243053 -108.938971 274 34117ft 389kts
03-Aug-18 12:21 32.255158 -109.065875 274 34107ft 390kts
03-Aug-18 12:22 32.267449 -109.193239 274 34097ft 389kts
03-Aug-18 12:23 32.283439 -109.319504 279 34093ft 391kts
03-Aug-18 12:24 32.311620 -109.444159 281 34083ft 392kts
03-Aug-18 12:25 32.338437 -109.568997 280 34076ft 391kts
03-Aug-18 12:26 32.365111 -109.693964 280 34078ft 391kts
03-Aug-18 12:27 32.391659 -109.818648 280 34077ft 390kts
03-Aug-18 12:28 32.418271 -109.943365 280 34079ft 390kts
03-Aug-18 12:29 32.444510 -110.067847 280 34044ft 390kts
03-Aug-18 12:30 32.470614 -110.192964 279 34038ft 392kts
03-Aug-18 12:31 32.496563 -110.318320 279 34035ft 393kts
03-Aug-18 12:32 32.522404 -110.443936 279 34043ft 392kts
03-Aug-18 12:33 32.548160 -110.569370 279 34041ft 393kts
03-Aug-18 12:34 32.574003 -110.695679 279 34037ft 393kts
03-Aug-18 12:35 32.599841 -110.821640 279 34034ft 395kts
03-Aug-18 12:36 32.625639 -110.948152 279 34023ft 394kts
03-Aug-18 12:37 32.651000 -111.074857 279 34023ft 395kts
03-Aug-18 12:38 32.676504 -111.201612 279 34017ft 395kts
03-Aug-18 12:39 32.701503 -111.328354 278 34005ft 395kts
03-Aug-18 12:40 32.726628 -111.455661 278 34000ft 395kts
03-Aug-18 12:41 32.751709 -111.582412 278 33990ft 395kts
03-Aug-18 12:42 32.776969 -111.709583 278 33981ft 395kts
03-Aug-18 12:43 32.801722 -111.837196 278 33976ft 395kts
03-Aug-18 12:44 32.826308 -111.964547 278 33975ft 395kts
03-Aug-18 12:45 32.850824 -112.092161 278 33975ft 397kts
03-Aug-18 12:46 32.875226 -112.219723 278 33974ft 396kts
03-Aug-18 12:47 32.899917 -112.347772 277 33972ft 397kts
03-Aug-18 12:48 32.924049 -112.475521 277 33957ft 397kts
03-Aug-18 12:49 32.948246 -112.603729 277 33955ft 396kts
03-Aug-18 12:50 32.958989 -112.732362 261 33953ft 389kts
03-Aug-18 12:51 32.940149 -112.859139 257 33949ft 388kts
03-Aug-18 12:52 32.921289 -112.985457 258 33948ft 388kts
03-Aug-18 12:53 32.904389 -113.112202 258 33944ft 387kts
03-Aug-18 12:54 32.887028 -113.238742 258 33941ft 387kts
03-Aug-18 12:55 32.869385 -113.364860 258 33938ft 387kts
03-Aug-18 12:56 32.851559 -113.491351 258 33934ft 387kts
03-Aug-18 12:57 32.833878 -113.617901 258 33924ft 387kts
03-Aug-18 12:58 32.816440 -113.744137 258 33921ft 387kts
03-Aug-18 12:59 32.798533 -113.870299 258 33919ft 387kts
03-Aug-18 13:00 32.781175 -113.996505 261 33918ft 388kts
03-Aug-18 13:01 32.781170 -114.125488 269 33917ft 392kts
03-Aug-18 13:02 32.788656 -114.254724 268 33916ft 392kts
03-Aug-18 13:03 32.794068 -114.384081 270 33915ft 392kts
03-Aug-18 13:04 32.824617 -114.510712 283 33916ft 404kts
03-Aug-18 13:05 32.861400 -114.636685 281 33915ft 402kts
03-Aug-18 13:06 32.887188 -114.764608 268 33916ft 392kts
03-Aug-18 13:07 32.884209 -114.893074 262 32435ft 381kts
03-Aug-18 13:08 32.879358 -115.018542 264 30432ft 376kts
03-Aug-18 13:09 32.876565 -115.141803 264 28432ft 369kts
03-Aug-18 13:10 32.873504 -115.262627 264 26436ft 362kts
03-Aug-18 13:11 32.868549 -115.381135 259 24914ft 353kts
03-Aug-18 13:12 32.851092 -115.496834 256 24376ft 355kts
03-Aug-18 13:13 32.831773 -115.610679 256 22977ft 348kts
03-Aug-18 13:14 32.813006 -115.722558 256 21577ft 341kts
03-Aug-18 13:15 32.795079 -115.831670 256 19883ft 328kts
03-Aug-18 13:16 32.783483 -115.937051 262 17987ft 318kts
03-Aug-18 13:17 32.776371 -116.040907 262 16081ft 311kts
03-Aug-18 13:18 32.768941 -116.141703 262 14201ft 307kts
03-Aug-18 13:19 32.761802 -116.242147 262 13038ft 303kts
03-Aug-18 13:20 32.753881 -116.343151 262 13027ft 300kts
03-Aug-18 13:21 32.746055 -116.438301 262 11587ft 286kts
03-Aug-18 13:22 32.737907 -116.531449 261 9951ft 280kts
03-Aug-18 13:23 32.728851 -116.623044 262 8447ft 277kts
03-Aug-18 13:24 32.720532 -116.712806 264 7219ft 269kts
03-Aug-18 13:25 32.713313 -116.798967 261 6157ft 250kts
03-Aug-18 13:26 32.694245 -116.874436 247 5143ft 231kts
03-Aug-18 13:27 32.672732 -116.945567 268 4013ft 232kts
03-Aug-18 13:28 32.693531 -117.013604 281 3681ft 215kts
03-Aug-18 13:29 32.709179 -117.082923 284 2253ft 202kts
03-Aug-18 13:30 32.722295 -117.143075 285 768ft 185kts
03-Aug-18 13:31 32.734363 -117.192915 285 24ft 80kts
03-Aug-18 13:32 32.734936 -117.198730 236 24ft 1kts
03-Aug-18 13:33 32.735321 -117.201123 286 24ft 1kts
03-Aug-18 13:34 32.733230 -117.202758 209 24ft 4kts
03-Aug-18 13:35 32.732993 -117.203399 256 24ft 0kts
03-Aug-18 13:36 32.732993 -117.203399 256 24ft 0kts

Navigation Log

Ident Type
Flight plan parsing failed, navigation log unavailable